sensor_id;sensor_type;location;lat;lon;timestamp;temperature;humidity
47540;DHT22;33280;52.152;21.052;2023-04-01T00:02:07;9.50;99.90
47540;DHT22;33280;52.152;21.052;2023-04-01T00:04:34;9.50;99.90
47540;DHT22;33280;52.152;21.052;2023-04-01T00:07:01;9.50;99.90
47540;DHT22;33280;52.152;21.052;2023-04-01T00:09:28;9.50;99.90
47540;DHT22;33280;52.152;21.052;2023-04-01T00:11:56;9.50;99.90
47540;DHT22;33280;52.152;21.052;2023-04-01T00:14:29;9.50;99.90
47540;DHT22;33280;52.152;21.052;2023-04-01T00:16:57;9.40;99.90
47540;DHT22;33280;52.152;21.052;2023-04-01T00:19:23;9.40;99.90
47540;DHT22;33280;52.152;21.052;2023-04-01T00:21:50;9.50;99.90
47540;DHT22;33280;52.152;21.052;2023-04-01T00:24:18;9.40;99.90
47540;DHT22;33280;52.152;21.052;2023-04-01T00:26:45;9.40;99.90
47540;DHT22;33280;52.152;21.052;2023-04-01T00:29:14;9.40;99.90
47540;DHT22;33280;52.152;21.052;2023-04-01T00:31:41;9.40;99.90
47540;DHT22;33280;52.152;21.052;2023-04-01T00:34:09;9.40;99.90
47540;DHT22;33280;52.152;21.052;2023-04-01T00:36:36;9.30;99.90
47540;DHT22;33280;52.152;21.052;2023-04-01T00:39:03;9.40;99.90
47540;DHT22;33280;52.152;21.052;2023-04-01T00:41:30;9.30;99.90
47540;DHT22;33280;52.152;21.052;2023-04-01T00:44:21;9.30;99.90
47540;DHT22;33280;52.152;21.052;2023-04-01T00:46:49;9.30;99.90
47540;DHT22;33280;52.152;21.052;2023-04-01T00:49:18;9.20;99.90
47540;DHT22;33280;52.152;21.052;2023-04-01T00:51:49;9.20;99.90
47540;DHT22;33280;52.152;21.052;2023-04-01T00:54:19;9.20;99.90
47540;DHT22;33280;52.152;21.052;2023-04-01T00:57:09;9.10;99.90
47540;DHT22;33280;52.152;21.052;2023-04-01T00:59:43;9.20;99.90
47540;DHT22;33280;52.152;21.052;2023-04-01T01:02:11;9.20;99.90
47540;DHT22;33280;52.152;21.052;2023-04-01T01:04:39;9.20;99.90
47540;DHT22;33280;52.152;21.052;2023-04-01T01:07:27;9.20;99.90
47540;DHT22;33280;52.152;21.052;2023-04-01T01:10:10;9.20;99.90
47540;DHT22;33280;52.152;21.052;2023-04-01T01:13:10;9.20;99.90
47540;DHT22;33280;52.152;21.052;2023-04-01T01:15:52;9.20;99.90
47540;DHT22;33280;52.152;21.052;2023-04-01T01:18:40;9.20;99.90
47540;DHT22;33280;52.152;21.052;2023-04-01T01:26:47;9.00;99.90
47540;DHT22;33280;52.152;21.052;2023-04-01T01:35:06;8.90;99.90
47540;DHT22;33280;52.152;21.052;2023-04-01T01:37:34;8.90;99.90
47540;DHT22;33280;52.152;21.052;2023-04-01T01:40:06;8.90;99.90
47540;DHT22;33280;52.152;21.052;2023-04-01T01:42:36;8.80;99.90
47540;DHT22;33280;52.152;21.052;2023-04-01T01:45:05;8.90;99.90
47540;DHT22;33280;52.152;21.052;2023-04-01T01:47:33;8.90;99.90
47540;DHT22;33280;52.152;21.052;2023-04-01T01:50:01;8.90;99.90
47540;DHT22;33280;52.152;21.052;2023-04-01T01:52:29;8.90;99.90
47540;DHT22;33280;52.152;21.052;2023-04-01T01:54:58;8.80;99.90
47540;DHT22;33280;52.152;21.052;2023-04-01T01:57:36;8.80;99.90
47540;DHT22;33280;52.152;21.052;2023-04-01T02:00:09;8.80;99.90
47540;DHT22;33280;52.152;21.052;2023-04-01T02:02:46;8.80;99.90
47540;DHT22;33280;52.152;21.052;2023-04-01T02:05:22;8.80;99.90
47540;DHT22;33280;52.152;21.052;2023-04-01T02:08:08;8.90;99.90
47540;DHT22;33280;52.152;21.052;2023-04-01T02:10:40;8.90;99.90
47540;DHT22;33280;52.152;21.052;2023-04-01T02:13:16;9.00;99.90
47540;DHT22;33280;52.152;21.052;2023-04-01T02:15:46;9.00;99.90
47540;DHT22;33280;52.152;21.052;2023-04-01T02:18:14;9.10;99.90
47540;DHT22;33280;52.152;21.052;2023-04-01T02:20:43;9.10;99.90
47540;DHT22;33280;52.152;21.052;2023-04-01T02:23:11;9.10;99.90
47540;DHT22;33280;52.152;21.052;2023-04-01T02:25:39;9.10;99.90
47540;DHT22;33280;52.152;21.052;2023-04-01T02:28:07;9.10;99.90
47540;DHT22;33280;52.152;21.052;2023-04-01T02:30:36;9.10;99.90
47540;DHT22;33280;52.152;21.052;2023-04-01T02:33:06;9.10;99.90
47540;DHT22;33280;52.152;21.052;2023-04-01T02:35:35;9.20;99.90
47540;DHT22;33280;52.152;21.052;2023-04-01T02:38:03;9.10;99.90
47540;DHT22;33280;52.152;21.052;2023-04-01T02:40:50;9.10;99.90
47540;DHT22;33280;52.152;21.052;2023-04-01T02:43:17;9.00;99.90
47540;DHT22;33280;52.152;21.052;2023-04-01T02:45:47;9.00;99.90
47540;DHT22;33280;52.152;21.052;2023-04-01T02:48:14;9.00;99.90
47540;DHT22;33280;52.152;21.052;2023-04-01T02:50:41;8.90;99.90
47540;DHT22;33280;52.152;21.052;2023-04-01T02:53:08;8.90;99.90
47540;DHT22;33280;52.152;21.052;2023-04-01T02:55:34;8.80;99.90
47540;DHT22;33280;52.152;21.052;2023-04-01T02:58:01;8.80;99.90
47540;DHT22;33280;52.152;21.052;2023-04-01T03:00:28;8.70;99.90
47540;DHT22;33280;52.152;21.052;2023-04-01T03:02:55;8.80;99.90
47540;DHT22;33280;52.152;21.052;2023-04-01T03:05:23;8.70;99.90
47540;DHT22;33280;52.152;21.052;2023-04-01T03:07:50;8.60;99.90
47540;DHT22;33280;52.152;21.052;2023-04-01T03:10:17;8.60;99.90
47540;DHT22;33280;52.152;21.052;2023-04-01T03:12:44;8.60;99.90
47540;DHT22;33280;52.152;21.052;2023-04-01T03:15:12;8.60;99.90
47540;DHT22;33280;52.152;21.052;2023-04-01T03:17:41;8.60;99.90
47540;DHT22;33280;52.152;21.052;2023-04-01T03:20:09;8.60;99.90
47540;DHT22;33280;52.152;21.052;2023-04-01T03:22:37;8.70;99.90
47540;DHT22;33280;52.152;21.052;2023-04-01T03:25:08;8.70;99.90
47540;DHT22;33280;52.152;21.052;2023-04-01T03:27:35;8.70;99.90
47540;DHT22;33280;52.152;21.052;2023-04-01T03:30:04;8.60;99.90
47540;DHT22;33280;52.152;21.052;2023-04-01T03:32:32;8.60;99.90
47540;DHT22;33280;52.152;21.052;2023-04-01T03:34:59;8.60;99.90
47540;DHT22;33280;52.152;21.052;2023-04-01T03:37:26;8.60;99.90
47540;DHT22;33280;52.152;21.052;2023-04-01T03:39:53;8.50;99.90
47540;DHT22;33280;52.152;21.052;2023-04-01T03:42:19;8.50;99.90
47540;DHT22;33280;52.152;21.052;2023-04-01T03:44:46;8.50;99.90
47540;DHT22;33280;52.152;21.052;2023-04-01T03:47:13;8.40;99.90
47540;DHT22;33280;52.152;21.052;2023-04-01T03:49:40;8.40;99.90
47540;DHT22;33280;52.152;21.052;2023-04-01T03:52:10;8.40;99.90
47540;DHT22;33280;52.152;21.052;2023-04-01T03:54:37;8.40;99.90
47540;DHT22;33280;52.152;21.052;2023-04-01T03:57:04;8.40;99.90
47540;DHT22;33280;52.152;21.052;2023-04-01T03:59:32;8.40;99.90
47540;DHT22;33280;52.152;21.052;2023-04-01T04:01:58;8.40;99.90
47540;DHT22;33280;52.152;21.052;2023-04-01T04:04:26;8.50;99.90
47540;DHT22;33280;52.152;21.052;2023-04-01T04:06:53;8.40;99.90
47540;DHT22;33280;52.152;21.052;2023-04-01T04:09:20;8.50;99.90
47540;DHT22;33280;52.152;21.052;2023-04-01T04:11:48;8.60;99.90
47540;DHT22;33280;52.152;21.052;2023-04-01T04:14:19;8.60;99.90
47540;DHT22;33280;52.152;21.052;2023-04-01T04:16:47;8.60;99.90
47540;DHT22;33280;52.152;21.052;2023-04-01T04:19:14;8.60;99.90
47540;DHT22;33280;52.152;21.052;2023-04-01T04:21:41;8.60;99.90
47540;DHT22;33280;52.152;21.052;2023-04-01T04:24:09;8.60;99.90
47540;DHT22;33280;52.152;21.052;2023-04-01T04:26:36;8.60;99.90
47540;DHT22;33280;52.152;21.052;2023-04-01T04:29:03;8.70;99.90
47540;DHT22;33280;52.152;21.052;2023-04-01T04:31:30;8.70;99.90
47540;DHT22;33280;52.152;21.052;2023-04-01T04:33:59;8.70;99.90
47540;DHT22;33280;52.152;21.052;2023-04-01T04:36:26;8.70;99.90
47540;DHT22;33280;52.152;21.052;2023-04-01T04:38:53;8.80;99.90
47540;DHT22;33280;52.152;21.052;2023-04-01T04:41:21;8.80;99.90
47540;DHT22;33280;52.152;21.052;2023-04-01T04:43:54;8.80;99.90
47540;DHT22;33280;52.152;21.052;2023-04-01T04:46:25;8.80;99.90
47540;DHT22;33280;52.152;21.052;2023-04-01T04:48:52;8.90;99.90
47540;DHT22;33280;52.152;21.052;2023-04-01T04:51:20;8.90;99.90
47540;DHT22;33280;52.152;21.052;2023-04-01T04:53:48;8.90;99.90
47540;DHT22;33280;52.152;21.052;2023-04-01T04:56:19;8.90;99.90
47540;DHT22;33280;52.152;21.052;2023-04-01T04:58:46;8.90;99.90
47540;DHT22;33280;52.152;21.052;2023-04-01T05:01:15;8.90;99.90
47540;DHT22;33280;52.152;21.052;2023-04-01T05:03:43;8.80;99.90
47540;DHT22;33280;52.152;21.052;2023-04-01T05:06:17;8.90;99.90
47540;DHT22;33280;52.152;21.052;2023-04-01T05:08:46;8.90;99.90
47540;DHT22;33280;52.152;21.052;2023-04-01T05:11:15;8.90;99.90
47540;DHT22;33280;52.152;21.052;2023-04-01T05:13:42;8.90;99.90
47540;DHT22;33280;52.152;21.052;2023-04-01T05:16:11;8.90;99.90
47540;DHT22;33280;52.152;21.052;2023-04-01T05:18:38;8.90;99.90
47540;DHT22;33280;52.152;21.052;2023-04-01T05:21:07;9.00;99.90
47540;DHT22;33280;52.152;21.052;2023-04-01T05:23:34;9.10;99.90
47540;DHT22;33280;52.152;21.052;2023-04-01T05:26:06;9.10;99.90
47540;DHT22;33280;52.152;21.052;2023-04-01T05:28:33;9.10;99.90
47540;DHT22;33280;52.152;21.052;2023-04-01T05:31:04;9.10;99.90
47540;DHT22;33280;52.152;21.052;2023-04-01T05:33:32;9.00;99.90
47540;DHT22;33280;52.152;21.052;2023-04-01T05:36:10;9.00;99.90
47540;DHT22;33280;52.152;21.052;2023-04-01T05:38:38;9.10;99.90
47540;DHT22;33280;52.152;21.052;2023-04-01T05:41:06;9.10;99.90
47540;DHT22;33280;52.152;21.052;2023-04-01T05:43:36;9.10;99.90
47540;DHT22;33280;52.152;21.052;2023-04-01T05:46:03;9.10;99.90
47540;DHT22;33280;52.152;21.052;2023-04-01T05:48:30;9.20;99.90
47540;DHT22;33280;52.152;21.052;2023-04-01T05:51:00;9.30;99.90
47540;DHT22;33280;52.152;21.052;2023-04-01T05:53:27;9.30;99.90
47540;DHT22;33280;52.152;21.052;2023-04-01T05:55:54;9.30;99.90
47540;DHT22;33280;52.152;21.052;2023-04-01T05:58:21;9.30;99.90
47540;DHT22;33280;52.152;21.052;2023-04-01T06:00:49;9.30;99.90
47540;DHT22;33280;52.152;21.052;2023-04-01T06:03:34;9.30;99.90
47540;DHT22;33280;52.152;21.052;2023-04-01T06:06:02;9.30;99.90
47540;DHT22;33280;52.152;21.052;2023-04-01T06:08:31;9.30;99.90
47540;DHT22;33280;52.152;21.052;2023-04-01T06:11:19;9.30;99.90
47540;DHT22;33280;52.152;21.052;2023-04-01T06:14:11;9.30;99.90
47540;DHT22;33280;52.152;21.052;2023-04-01T06:25:48;9.20;99.90
47540;DHT22;33280;52.152;21.052;2023-04-01T06:30:49;9.10;99.90
47540;DHT22;33280;52.152;21.052;2023-04-01T06:36:39;9.20;99.90
47540;DHT22;33280;52.152;21.052;2023-04-01T06:47:36;9.40;99.90
47540;DHT22;33280;52.152;21.052;2023-04-01T06:50:11;9.50;99.90
47540;DHT22;33280;52.152;21.052;2023-04-01T06:53:12;9.60;99.90
47540;DHT22;33280;52.152;21.052;2023-04-01T06:55:49;9.60;99.90
47540;DHT22;33280;52.152;21.052;2023-04-01T06:58:28;9.80;99.90
47540;DHT22;33280;52.152;21.052;2023-04-01T07:00:59;9.70;99.90
47540;DHT22;33280;52.152;21.052;2023-04-01T07:03:41;9.70;99.90
47540;DHT22;33280;52.152;21.052;2023-04-01T07:09:05;9.80;99.90
47540;DHT22;33280;52.152;21.052;2023-04-01T07:11:37;9.80;99.90
47540;DHT22;33280;52.152;21.052;2023-04-01T07:14:21;9.80;99.90
47540;DHT22;33280;52.152;21.052;2023-04-01T07:17:19;9.80;99.90
47540;DHT22;33280;52.152;21.052;2023-04-01T07:19:52;9.70;99.90
47540;DHT22;33280;52.152;21.052;2023-04-01T07:22:48;9.70;99.90
47540;DHT22;33280;52.152;21.052;2023-04-01T07:25:21;9.80;99.90
47540;DHT22;33280;52.152;21.052;2023-04-01T07:27:50;9.80;99.90
47540;DHT22;33280;52.152;21.052;2023-04-01T07:30:22;9.80;99.90
47540;DHT22;33280;52.152;21.052;2023-04-01T07:33:08;9.80;99.90
47540;DHT22;33280;52.152;21.052;2023-04-01T07:35:41;9.70;99.90
47540;DHT22;33280;52.152;21.052;2023-04-01T07:41:23;9.80;99.90
47540;DHT22;33280;52.152;21.052;2023-04-01T07:46:53;10.00;99.90
47540;DHT22;33280;52.152;21.052;2023-04-01T07:52:08;10.20;99.90
47540;DHT22;33280;52.152;21.052;2023-04-01T07:54:49;10.30;99.90
47540;DHT22;33280;52.152;21.052;2023-04-01T07:57:32;10.50;99.90
47540;DHT22;33280;52.152;21.052;2023-04-01T08:00:15;10.50;99.90
47540;DHT22;33280;52.152;21.052;2023-04-01T08:05:27;10.50;99.90
47540;DHT22;33280;52.152;21.052;2023-04-01T08:11:28;10.30;99.90
47540;DHT22;33280;52.152;21.052;2023-04-01T08:14:16;10.40;99.90
47540;DHT22;33280;52.152;21.052;2023-04-01T08:22:46;10.40;99.90
47540;DHT22;33280;52.152;21.052;2023-04-01T08:25:23;10.40;99.90
47540;DHT22;33280;52.152;21.052;2023-04-01T08:28:00;10.40;99.90
47540;DHT22;33280;52.152;21.052;2023-04-01T08:30:38;10.50;99.90
47540;DHT22;33280;52.152;21.052;2023-04-01T08:33:26;10.50;99.90
47540;DHT22;33280;52.152;21.052;2023-04-01T08:38:38;10.70;99.90
47540;DHT22;33280;52.152;21.052;2023-04-01T08:44:18;10.60;99.90
47540;DHT22;33280;52.152;21.052;2023-04-01T08:49:56;10.80;99.90
47540;DHT22;33280;52.152;21.052;2023-04-01T08:55:59;10.60;99.90
47540;DHT22;33280;52.152;21.052;2023-04-01T08:59:13;10.70;99.90
47540;DHT22;33280;52.152;21.052;2023-04-01T09:02:24;10.50;99.90
47540;DHT22;33280;52.152;21.052;2023-04-01T09:07:56;10.50;99.90
47540;DHT22;33280;52.152;21.052;2023-04-01T09:16:12;10.30;99.90
47540;DHT22;33280;52.152;21.052;2023-04-01T09:22:24;10.50;99.90
47540;DHT22;33280;52.152;21.052;2023-04-01T09:27:57;10.40;99.90
47540;DHT22;33280;52.152;21.052;2023-04-01T09:38:57;10.50;99.90
47540;DHT22;33280;52.152;21.052;2023-04-01T09:41:31;10.20;99.90
47540;DHT22;33280;52.152;21.052;2023-04-01T10:24:12;9.90;99.90
47540;DHT22;33280;52.152;21.052;2023-04-01T10:27:06;9.90;99.90
47540;DHT22;33280;52.152;21.052;2023-04-01T10:33:08;9.70;99.90
47540;DHT22;33280;52.152;21.052;2023-04-01T10:50:49;10.10;99.90
47540;DHT22;33280;52.152;21.052;2023-04-01T10:59:02;10.20;99.90
47540;DHT22;33280;52.152;21.052;2023-04-01T11:07:23;10.70;99.90
47540;DHT22;33280;52.152;21.052;2023-04-01T11:33:35;10.90;99.90
47540;DHT22;33280;52.152;21.052;2023-04-01T11:36:19;11.10;99.90
47540;DHT22;33280;52.152;21.052;2023-04-01T11:44:26;11.10;99.90
47540;DHT22;33280;52.152;21.052;2023-04-01T11:50:18;11.10;99.90
47540;DHT22;33280;52.152;21.052;2023-04-01T11:56:17;11.10;99.90
47540;DHT22;33280;52.152;21.052;2023-04-01T12:10:19;11.60;99.90
47540;DHT22;33280;52.152;21.052;2023-04-01T12:12:59;11.40;99.90
47540;DHT22;33280;52.152;21.052;2023-04-01T12:15:56;11.40;99.90
47540;DHT22;33280;52.152;21.052;2023-04-01T12:21:37;11.40;99.90
47540;DHT22;33280;52.152;21.052;2023-04-01T12:35:21;11.60;99.90
47540;DHT22;33280;52.152;21.052;2023-04-01T12:38:24;11.60;99.90
47540;DHT22;33280;52.152;21.052;2023-04-01T12:51:38;12.20;99.90
47540;DHT22;33280;52.152;21.052;2023-04-01T12:54:33;12.20;99.90
47540;DHT22;33280;52.152;21.052;2023-04-01T12:59:59;12.70;99.90
47540;DHT22;33280;52.152;21.052;2023-04-01T13:16:24;13.00;99.90
47540;DHT22;33280;52.152;21.052;2023-04-01T13:19:04;13.10;99.90
47540;DHT22;33280;52.152;21.052;2023-04-01T13:29:25;13.40;99.90
47540;DHT22;33280;52.152;21.052;2023-04-01T13:32:44;13.20;99.90
47540;DHT22;33280;52.152;21.052;2023-04-01T13:35:46;13.20;99.90
47540;DHT22;33280;52.152;21.052;2023-04-01T13:44:02;13.30;99.90
47540;DHT22;33280;52.152;21.052;2023-04-01T13:49:31;13.00;99.90
47540;DHT22;33280;52.152;21.052;2023-04-01T13:55:01;12.80;99.90
47540;DHT22;33280;52.152;21.052;2023-04-01T14:00:22;11.90;99.90
47540;DHT22;33280;52.152;21.052;2023-04-01T14:28:25;11.10;99.90
47540;DHT22;33280;52.152;21.052;2023-04-01T14:39:36;11.70;99.90
47540;DHT22;33280;52.152;21.052;2023-04-01T14:50:43;11.40;99.90
47540;DHT22;33280;52.152;21.052;2023-04-01T14:53:31;11.30;99.90
47540;DHT22;33280;52.152;21.052;2023-04-01T14:56:05;11.10;99.90
47540;DHT22;33280;52.152;21.052;2023-04-01T14:58:47;11.00;99.90
47540;DHT22;33280;52.152;21.052;2023-04-01T15:04:19;10.90;99.90
47540;DHT22;33280;52.152;21.052;2023-04-01T15:10:12;10.80;99.90
47540;DHT22;33280;52.152;21.052;2023-04-01T15:18:57;10.60;99.90
47540;DHT22;33280;52.152;21.052;2023-04-01T15:27:45;10.20;99.90
47540;DHT22;33280;52.152;21.052;2023-04-01T15:30:29;10.20;99.90
47540;DHT22;33280;52.152;21.052;2023-04-01T15:33:17;10.10;99.90
47540;DHT22;33280;52.152;21.052;2023-04-01T15:38:54;9.90;99.90
47540;DHT22;33280;52.152;21.052;2023-04-01T15:44:24;10.00;99.90
47540;DHT22;33280;52.152;21.052;2023-04-01T15:46:51;10.10;99.90
47540;DHT22;33280;52.152;21.052;2023-04-01T15:57:28;9.90;99.90
47540;DHT22;33280;52.152;21.052;2023-04-01T16:00:28;9.80;99.90
47540;DHT22;33280;52.152;21.052;2023-04-01T16:03:18;9.90;99.90
47540;DHT22;33280;52.152;21.052;2023-04-01T16:12:00;9.70;99.90
47540;DHT22;33280;52.152;21.052;2023-04-01T16:22:39;9.70;99.90
47540;DHT22;33280;52.152;21.052;2023-04-01T16:33:56;9.70;99.90
47540;DHT22;33280;52.152;21.052;2023-04-01T16:39:28;9.60;99.90
47540;DHT22;33280;52.152;21.052;2023-04-01T16:42:23;9.60;99.90
47540;DHT22;33280;52.152;21.052;2023-04-01T16:48:22;9.60;99.90
47540;DHT22;33280;52.152;21.052;2023-04-01T16:51:11;9.50;99.90
47540;DHT22;33280;52.152;21.052;2023-04-01T16:53:47;9.60;99.90
47540;DHT22;33280;52.152;21.052;2023-04-01T16:56:28;9.50;99.90
47540;DHT22;33280;52.152;21.052;2023-04-01T17:21:24;8.90;99.90
47540;DHT22;33280;52.152;21.052;2023-04-01T17:35:26;9.10;99.90
47540;DHT22;33280;52.152;21.052;2023-04-01T17:38:17;8.90;99.90
47540;DHT22;33280;52.152;21.052;2023-04-01T17:43:58;9.00;99.90
47540;DHT22;33280;52.152;21.052;2023-04-01T17:47:09;9.00;99.90
47540;DHT22;33280;52.152;21.052;2023-04-01T17:52:32;9.00;99.90
47540;DHT22;33280;52.152;21.052;2023-04-01T18:17:55;9.00;99.90
47540;DHT22;33280;52.152;21.052;2023-04-01T18:23:53;8.90;99.90
47540;DHT22;33280;52.152;21.052;2023-04-01T18:26:33;8.90;99.90
47540;DHT22;33280;52.152;21.052;2023-04-01T18:29:32;9.00;99.90
47540;DHT22;33280;52.152;21.052;2023-04-01T18:40:42;8.90;99.90
47540;DHT22;33280;52.152;21.052;2023-04-01T18:43:12;8.90;99.90
47540;DHT22;33280;52.152;21.052;2023-04-01T18:45:57;9.00;99.90
47540;DHT22;33280;52.152;21.052;2023-04-01T18:51:13;9.00;99.90
47540;DHT22;33280;52.152;21.052;2023-04-01T18:53:57;8.90;99.90
47540;DHT22;33280;52.152;21.052;2023-04-01T18:56:39;8.90;99.90
47540;DHT22;33280;52.152;21.052;2023-04-01T18:59:25;8.80;99.90
47540;DHT22;33280;52.152;21.052;2023-04-01T19:02:07;8.80;99.90
47540;DHT22;33280;52.152;21.052;2023-04-01T19:04:41;8.80;99.90
47540;DHT22;33280;52.152;21.052;2023-04-01T19:10:01;8.70;99.90
47540;DHT22;33280;52.152;21.052;2023-04-01T19:12:52;8.70;99.90
47540;DHT22;33280;52.152;21.052;2023-04-01T19:18:21;8.70;99.90
47540;DHT22;33280;52.152;21.052;2023-04-01T19:21:19;8.70;99.90
47540;DHT22;33280;52.152;21.052;2023-04-01T19:26:39;8.70;99.90
47540;DHT22;33280;52.152;21.052;2023-04-01T19:34:43;8.50;99.90
47540;DHT22;33280;52.152;21.052;2023-04-01T19:45:40;8.60;99.90
47540;DHT22;33280;52.152;21.052;2023-04-01T19:50:38;8.60;99.90
47540;DHT22;33280;52.152;21.052;2023-04-01T19:56:20;8.50;99.90
47540;DHT22;33280;52.152;21.052;2023-04-01T19:58:54;8.60;99.90
47540;DHT22;33280;52.152;21.052;2023-04-01T20:01:37;8.60;99.90
47540;DHT22;33280;52.152;21.052;2023-04-01T20:04:29;8.50;99.90
47540;DHT22;33280;52.152;21.052;2023-04-01T20:15:04;8.30;99.90
47540;DHT22;33280;52.152;21.052;2023-04-01T20:17:46;8.30;99.90
47540;DHT22;33280;52.152;21.052;2023-04-01T20:20:34;8.30;99.90
47540;DHT22;33280;52.152;21.052;2023-04-01T20:23:16;8.30;99.90
47540;DHT22;33280;52.152;21.052;2023-04-01T20:25:57;8.30;99.90
47540;DHT22;33280;52.152;21.052;2023-04-01T20:28:32;8.30;99.90
47540;DHT22;33280;52.152;21.052;2023-04-01T20:31:24;8.30;99.90
47540;DHT22;33280;52.152;21.052;2023-04-01T20:41:04;8.30;99.90
47540;DHT22;33280;52.152;21.052;2023-04-01T20:46:30;8.10;99.90
47540;DHT22;33280;52.152;21.052;2023-04-01T20:55:03;8.00;99.90
47540;DHT22;33280;52.152;21.052;2023-04-01T21:08:25;8.00;99.90
47540;DHT22;33280;52.152;21.052;2023-04-01T21:11:08;8.00;99.90
47540;DHT22;33280;52.152;21.052;2023-04-01T21:13:55;8.00;99.90
47540;DHT22;33280;52.152;21.052;2023-04-01T21:33:41;8.00;99.90
47540;DHT22;33280;52.152;21.052;2023-04-01T21:36:23;7.90;99.90
47540;DHT22;33280;52.152;21.052;2023-04-01T21:39:00;7.90;99.90
47540;DHT22;33280;52.152;21.052;2023-04-01T21:44:36;8.00;99.90
47540;DHT22;33280;52.152;21.052;2023-04-01T21:47:25;8.10;99.90
47540;DHT22;33280;52.152;21.052;2023-04-01T21:50:34;8.00;99.90
47540;DHT22;33280;52.152;21.052;2023-04-01T22:07:12;8.00;99.90
47540;DHT22;33280;52.152;21.052;2023-04-01T22:12:19;8.00;99.90
47540;DHT22;33280;52.152;21.052;2023-04-01T22:17:35;8.00;99.90
47540;DHT22;33280;52.152;21.052;2023-04-01T22:30:51;7.90;99.90
47540;DHT22;33280;52.152;21.052;2023-04-01T22:47:48;7.80;99.90
47540;DHT22;33280;52.152;21.052;2023-04-01T22:50:31;7.80;99.90
47540;DHT22;33280;52.152;21.052;2023-04-01T22:55:40;7.80;99.90
47540;DHT22;33280;52.152;21.052;2023-04-01T22:58:33;7.80;99.90
47540;DHT22;33280;52.152;21.052;2023-04-01T23:01:07;7.90;99.90
47540;DHT22;33280;52.152;21.052;2023-04-01T23:03:46;7.80;99.90
47540;DHT22;33280;52.152;21.052;2023-04-01T23:06:27;7.80;99.90
47540;DHT22;33280;52.152;21.052;2023-04-01T23:11:30;7.80;99.90
47540;DHT22;33280;52.152;21.052;2023-04-01T23:22:27;7.70;99.90
47540;DHT22;33280;52.152;21.052;2023-04-01T23:27:59;7.70;99.90
47540;DHT22;33280;52.152;21.052;2023-04-01T23:33:22;7.50;99.90
47540;DHT22;33280;52.152;21.052;2023-04-01T23:36:10;7.60;99.90
47540;DHT22;33280;52.152;21.052;2023-04-01T23:38:39;7.50;99.90
47540;DHT22;33280;52.152;21.052;2023-04-01T23:41:25;7.60;99.90
47540;DHT22;33280;52.152;21.052;2023-04-01T23:44:00;7.50;99.90
47540;DHT22;33280;52.152;21.052;2023-04-01T23:46:29;7.40;99.90
47540;DHT22;33280;52.152;21.052;2023-04-01T23:48:57;7.40;99.90
47540;DHT22;33280;52.152;21.052;2023-04-01T23:51:28;7.40;99.90
47540;DHT22;33280;52.152;21.052;2023-04-01T23:57:10;7.30;99.90
47540;DHT22;33280;52.152;21.052;2023-04-01T23:59:38;7.40;99.90
